createdAt,value
2023-02-02T00:02:04.495Z,14.40
2023-02-02T00:04:36.337Z,19.52
2023-02-02T00:07:05.651Z,20.92
2023-02-02T00:09:34.137Z,16.85
2023-02-02T00:12:02.914Z,27.02
2023-02-02T00:14:31.304Z,21.38
2023-02-02T00:17:00.594Z,15.23
2023-02-02T00:19:31.603Z,20.75
2023-02-02T00:21:59.568Z,13.60
2023-02-02T00:24:27.464Z,18.60
2023-02-02T00:26:57.420Z,17.77
2023-02-02T00:29:26.896Z,15.50
2023-02-02T00:31:54.990Z,18.63
2023-02-02T00:34:25.205Z,18.98
2023-02-02T00:36:53.533Z,22.27
2023-02-02T00:39:26.455Z,16.20
2023-02-02T00:41:55.790Z,18.13
2023-02-02T00:44:41.412Z,26.55
2023-02-02T00:47:09.322Z,15.63
2023-02-02T00:49:39.420Z,24.08
2023-02-02T00:52:07.359Z,20.20
2023-02-02T00:54:35.288Z,21.48
2023-02-02T00:57:03.721Z,11.18
2023-02-02T00:59:32.490Z,18.55
2023-02-02T01:02:02.084Z,20.67
2023-02-02T01:04:30.379Z,17.27
2023-02-02T01:06:59.852Z,11.60
2023-02-02T01:09:27.851Z,21.92
2023-02-02T01:11:55.922Z,18.20
2023-02-02T01:14:24.197Z,26.55
2023-02-02T01:16:52.091Z,24.38
2023-02-02T01:19:20.039Z,16.52
2023-02-02T01:21:47.933Z,16.13
2023-02-02T01:24:17.204Z,18.75
2023-02-02T01:26:45.153Z,15.80
2023-02-02T01:29:13.246Z,16.58
2023-02-02T01:31:42.211Z,18.27
2023-02-02T01:34:11.426Z,18.75
2023-02-02T01:36:39.341Z,23.67
2023-02-02T01:39:07.220Z,17.73
2023-02-02T01:41:36.542Z,16.13
2023-02-02T01:44:06.218Z,16.10
2023-02-02T01:46:36.105Z,22.60
2023-02-02T01:49:09.100Z,21.38
2023-02-02T01:51:42.984Z,15.63
2023-02-02T01:54:15.953Z,19.48
2023-02-02T01:56:54.884Z,16.13
2023-02-02T01:59:23.661Z,16.00
2023-02-02T02:01:54.883Z,24.48
2023-02-02T02:04:25.156Z,21.17
2023-02-02T02:06:54.217Z,19.70
2023-02-02T02:09:22.504Z,16.15
2023-02-02T02:11:54.205Z,19.30
2023-02-02T02:14:41.195Z,24.38
2023-02-02T02:17:20.205Z,17.63
2023-02-02T02:20:51.246Z,25.70
2023-02-02T02:24:17.160Z,19.00
2023-02-02T02:26:58.556Z,13.13
2023-02-02T02:30:10.715Z,17.77
2023-02-02T02:32:46.665Z,25.83
2023-02-02T02:35:24.593Z,17.48
2023-02-02T02:37:59.590Z,11.55
2023-02-02T02:40:35.397Z,17.00
2023-02-02T02:43:08.970Z,25.83
2023-02-02T02:45:39.777Z,14.13
2023-02-02T02:48:11.399Z,13.93
2023-02-02T02:50:39.709Z,19.10
2023-02-02T02:53:14.290Z,14.95
2023-02-02T02:55:50.373Z,16.88
2023-02-02T02:58:25.182Z,16.50
2023-02-02T03:01:04.438Z,10.30
2023-02-02T03:03:49.244Z,18.48
2023-02-02T03:06:24.362Z,16.17
2023-02-02T03:08:57.258Z,14.95
2023-02-02T03:11:25.202Z,20.20
2023-02-02T03:13:53.322Z,13.60
2023-02-02T03:16:21.163Z,8.65
2023-02-02T03:18:50.489Z,15.10
2023-02-02T03:21:18.347Z,9.50
2023-02-02T03:23:46.206Z,17.15
2023-02-02T03:26:14.108Z,7.60
2023-02-02T03:28:42.736Z,7.55
2023-02-02T03:31:10.928Z,10.13
2023-02-02T03:33:39.594Z,9.25
2023-02-02T03:36:09.725Z,4.80
2023-02-02T03:38:37.662Z,10.68
2023-02-02T03:41:06.572Z,8.60
2023-02-02T03:43:34.410Z,18.95
2023-02-02T03:46:05.232Z,14.93
2023-02-02T03:48:36.157Z,18.95
2023-02-02T03:51:08.677Z,10.80
2023-02-02T03:53:36.586Z,10.67
2023-02-02T03:56:05.158Z,12.98
2023-02-02T03:58:33.085Z,8.75
2023-02-02T04:01:04.143Z,8.90
2023-02-02T04:03:32.147Z,9.73
2023-02-02T04:06:00.108Z,9.63
2023-02-02T04:08:30.247Z,6.43
2023-02-02T04:10:59.540Z,8.60
2023-02-02T04:13:27.509Z,14.63
2023-02-02T04:15:59.537Z,5.90
2023-02-02T04:18:27.870Z,11.60
2023-02-02T04:20:59.420Z,6.65
2023-02-02T04:23:29.763Z,12.30
2023-02-02T04:25:58.573Z,7.78
2023-02-02T04:28:27.405Z,9.77
2023-02-02T04:30:56.382Z,11.95
2023-02-02T04:33:26.442Z,15.45
2023-02-02T04:35:54.350Z,8.85
2023-02-02T04:38:22.314Z,13.85
2023-02-02T04:40:51.639Z,13.88
2023-02-02T04:43:19.576Z,12.02
2023-02-02T04:45:47.526Z,7.35
2023-02-02T04:48:15.364Z,9.25
2023-02-02T04:50:43.184Z,9.18
2023-02-02T04:53:11.063Z,12.00
2023-02-02T04:55:39.137Z,11.55
2023-02-02T04:58:08.427Z,17.30
2023-02-02T05:00:36.295Z,7.97
2023-02-02T05:03:04.256Z,9.48
2023-02-02T05:05:32.118Z,6.65
2023-02-02T05:07:59.989Z,10.15
2023-02-02T05:10:27.864Z,11.32
2023-02-02T05:12:56.307Z,11.48
2023-02-02T05:15:25.874Z,15.23
2023-02-02T05:17:53.888Z,11.13
2023-02-02T05:20:21.748Z,9.45
2023-02-02T05:22:50.087Z,7.75
2023-02-02T05:25:18.548Z,10.30
2023-02-02T05:27:47.287Z,10.15
2023-02-02T05:30:15.956Z,11.88
2023-02-02T05:32:45.189Z,10.80
2023-02-02T05:35:13.075Z,8.43
2023-02-02T05:37:43.111Z,9.82
2023-02-02T05:40:12.127Z,9.40
2023-02-02T05:42:40.039Z,14.50
2023-02-02T05:45:08.687Z,15.25
2023-02-02T05:47:36.637Z,13.77
2023-02-02T05:50:06.455Z,12.63
2023-02-02T05:52:36.645Z,22.13
2023-02-02T05:55:05.216Z,11.43
2023-02-02T05:57:33.884Z,13.32
2023-02-02T06:00:01.826Z,10.57
2023-02-02T06:02:39.971Z,15.10
2023-02-02T06:05:10.013Z,11.30
2023-02-02T06:07:37.937Z,12.98
2023-02-02T06:10:06.528Z,14.23
2023-02-02T06:12:34.405Z,8.45
2023-02-02T06:15:02.359Z,14.02
2023-02-02T06:17:30.330Z,11.73
2023-02-02T06:19:58.196Z,12.32
2023-02-02T06:22:27.489Z,12.18
2023-02-02T06:24:55.385Z,11.00
2023-02-02T06:27:23.476Z,13.68
2023-02-02T06:29:51.537Z,8.15
2023-02-02T06:32:19.426Z,14.88
2023-02-02T06:34:47.390Z,11.38
2023-02-02T06:37:15.279Z,19.17
2023-02-02T06:39:44.489Z,9.73
2023-02-02T06:42:21.408Z,9.80
2023-02-02T06:44:49.895Z,10.05
2023-02-02T06:47:17.953Z,15.25
2023-02-02T06:49:45.797Z,18.02
2023-02-02T06:52:13.627Z,9.73
2023-02-02T06:54:41.597Z,11.50
2023-02-02T06:57:11.009Z,16.58
2023-02-02T06:59:40.974Z,7.68
2023-02-02T07:02:12.172Z,9.40
2023-02-02T07:04:40.088Z,8.95
2023-02-02T07:07:07.956Z,8.77
2023-02-02T07:09:36.336Z,12.05
2023-02-02T07:12:04.378Z,11.68
2023-02-02T07:14:33.695Z,14.38
2023-02-02T07:17:01.644Z,13.30
2023-02-02T07:19:29.766Z,13.38
2023-02-02T07:21:57.720Z,8.45
2023-02-02T07:24:25.589Z,5.13
2023-02-02T07:26:53.534Z,8.98
2023-02-02T07:29:21.667Z,14.13
2023-02-02T07:31:51.080Z,14.77
2023-02-02T07:34:19.243Z,13.05
2023-02-02T07:36:47.139Z,7.32
2023-02-02T07:39:15.352Z,13.23
2023-02-02T07:41:43.896Z,8.75
2023-02-02T07:44:24.457Z,9.25
2023-02-02T07:46:54.258Z,14.57
2023-02-02T07:49:22.171Z,9.50
2023-02-02T07:51:50.125Z,10.38
2023-02-02T07:54:18.071Z,23.85
2023-02-02T07:56:46.028Z,8.25
2023-02-02T07:59:14.267Z,16.70
2023-02-02T08:01:42.217Z,12.02
2023-02-02T08:04:11.670Z,10.30
2023-02-02T08:06:41.320Z,9.57
2023-02-02T08:09:10.761Z,10.88
2023-02-02T08:11:39.833Z,13.02
2023-02-02T08:14:08.348Z,15.88
2023-02-02T08:16:36.268Z,10.30
2023-02-02T08:19:04.530Z,9.43
2023-02-02T08:21:35.357Z,14.07
2023-02-02T08:24:05.173Z,14.52
2023-02-02T08:26:33.377Z,12.93
2023-02-02T08:29:03.039Z,12.52
2023-02-02T08:31:32.997Z,10.93
2023-02-02T08:34:01.000Z,18.02
2023-02-02T08:36:30.734Z,13.65
2023-02-02T08:39:03.392Z,12.27
2023-02-02T08:41:31.599Z,11.90
2023-02-02T08:43:59.763Z,15.25
2023-02-02T08:46:28.030Z,12.00
2023-02-02T08:48:55.936Z,21.67
2023-02-02T08:51:23.854Z,13.77
2023-02-02T08:53:51.753Z,9.30
2023-02-02T08:56:22.947Z,9.02
2023-02-02T08:58:52.949Z,9.23
2023-02-02T09:01:22.675Z,12.07
2023-02-02T09:03:54.630Z,7.97
2023-02-02T09:06:23.620Z,10.32
2023-02-02T09:08:51.494Z,15.85
2023-02-02T09:11:21.763Z,13.65
2023-02-02T09:13:50.863Z,10.13
2023-02-02T09:16:20.039Z,11.20
2023-02-02T09:18:48.155Z,14.30
2023-02-02T09:21:17.574Z,14.57
2023-02-02T09:23:46.696Z,12.45
2023-02-02T09:26:17.802Z,12.38
2023-02-02T09:28:49.145Z,16.10
2023-02-02T09:31:17.540Z,15.70
2023-02-02T09:33:45.939Z,10.02
2023-02-02T09:36:15.790Z,7.90
2023-02-02T09:38:44.899Z,6.85
2023-02-02T09:41:43.294Z,15.00
2023-02-02T09:44:24.215Z,13.98
2023-02-02T09:47:04.440Z,4.47
2023-02-02T09:49:38.474Z,8.88
2023-02-02T09:52:14.867Z,7.13
2023-02-02T09:54:45.920Z,10.82
2023-02-02T09:57:19.141Z,7.40
2023-02-02T09:59:51.989Z,14.75
2023-02-02T10:02:23.530Z,5.43
2023-02-02T10:04:53.655Z,13.45
2023-02-02T10:07:27.703Z,7.75
2023-02-02T10:10:00.680Z,16.13
2023-02-02T10:12:37.179Z,10.05
2023-02-02T10:15:17.742Z,9.02
2023-02-02T10:17:50.729Z,10.43
2023-02-02T10:20:39.818Z,7.95
2023-02-02T10:23:22.894Z,16.98
2023-02-02T10:25:57.672Z,11.73
2023-02-02T10:28:43.460Z,9.05
2023-02-02T10:31:23.360Z,9.27
2023-02-02T10:34:03.628Z,15.15
2023-02-02T10:36:41.040Z,5.72
2023-02-02T10:39:18.347Z,10.15
2023-02-02T10:41:53.021Z,7.10
2023-02-02T10:44:31.549Z,6.95
2023-02-02T10:47:04.953Z,6.38
2023-02-02T10:49:35.417Z,11.70
2023-02-02T10:52:15.758Z,8.15
2023-02-02T10:54:57.636Z,9.00
2023-02-02T10:57:35.676Z,4.72
2023-02-02T11:00:12.198Z,7.60
2023-02-02T11:02:41.454Z,7.43
2023-02-02T11:05:34.324Z,5.38
2023-02-02T11:08:02.804Z,9.43
2023-02-02T11:10:33.412Z,7.80
2023-02-02T11:13:02.730Z,11.90
2023-02-02T11:15:32.012Z,7.32
2023-02-02T11:18:15.888Z,6.13
2023-02-02T11:20:46.532Z,6.32
2023-02-02T11:23:20.200Z,5.25
2023-02-02T11:25:58.940Z,5.38
2023-02-02T11:28:30.428Z,5.88
2023-02-02T11:30:59.305Z,7.03
2023-02-02T11:33:31.717Z,3.97
2023-02-02T11:36:01.865Z,10.45
2023-02-02T11:38:32.033Z,4.82
2023-02-02T11:41:03.864Z,16.60
2023-02-02T11:43:40.863Z,5.57
2023-02-02T11:46:19.826Z,5.95
2023-02-02T11:48:59.662Z,13.73
2023-02-02T11:51:29.622Z,7.57
2023-02-02T11:54:06.196Z,6.05
2023-02-02T11:56:35.609Z,7.93
2023-02-02T11:59:04.183Z,4.75
2023-02-02T12:01:35.537Z,7.30
2023-02-02T12:04:24.433Z,4.90
2023-02-02T12:06:52.348Z,12.25
2023-02-02T12:09:23.266Z,7.72
2023-02-02T12:12:02.301Z,7.78
2023-02-02T12:14:38.451Z,9.82
2023-02-02T12:17:20.799Z,4.43
2023-02-02T12:20:13.794Z,11.27
2023-02-02T12:23:08.552Z,8.83
2023-02-02T12:25:54.919Z,4.93
2023-02-02T12:28:39.692Z,7.50
2023-02-02T12:31:16.373Z,5.45
2023-02-02T12:33:52.271Z,4.85
2023-02-02T12:36:37.347Z,5.00
2023-02-02T12:39:21.153Z,3.88
2023-02-02T12:42:18.413Z,4.13
2023-02-02T12:44:57.452Z,8.55
2023-02-02T12:47:29.023Z,4.60
2023-02-02T12:50:09.862Z,4.70
2023-02-02T12:52:53.716Z,8.68
2023-02-02T12:55:27.716Z,8.65
2023-02-02T12:58:07.540Z,4.63
2023-02-02T13:00:52.029Z,8.93
2023-02-02T13:03:29.581Z,6.20
2023-02-02T13:06:10.628Z,7.60
2023-02-02T13:08:48.672Z,7.47
2023-02-02T13:11:32.832Z,9.40
2023-02-02T13:14:06.683Z,4.38
2023-02-02T13:16:38.110Z,7.25
2023-02-02T13:19:09.321Z,7.18
2023-02-02T13:21:39.646Z,4.63
2023-02-02T13:24:16.542Z,4.07
2023-02-02T13:26:48.630Z,4.85
2023-02-02T13:29:33.398Z,3.47
2023-02-02T13:32:05.848Z,4.28
2023-02-02T13:34:42.444Z,4.18
2023-02-02T13:37:18.735Z,6.25
2023-02-02T13:39:57.452Z,3.72
2023-02-02T13:42:38.193Z,8.93
2023-02-02T13:45:22.966Z,6.18
2023-02-02T13:47:57.334Z,9.27
2023-02-02T13:50:30.415Z,3.30
2023-02-02T13:53:14.392Z,7.28
2023-02-02T13:56:06.649Z,5.03
2023-02-02T13:58:51.818Z,4.97
2023-02-02T14:01:20.873Z,9.00
2023-02-02T14:03:54.391Z,5.20
2023-02-02T14:06:24.408Z,5.68
2023-02-02T14:08:55.437Z,5.88
2023-02-02T14:11:29.201Z,5.88
2023-02-02T14:14:19.383Z,3.67
2023-02-02T14:16:50.479Z,3.47
2023-02-02T14:19:44.050Z,7.72
2023-02-02T14:22:39.028Z,9.35
2023-02-02T14:25:41.573Z,3.05
2023-02-02T14:28:12.452Z,8.63
2023-02-02T14:30:41.288Z,8.38
2023-02-02T14:33:39.939Z,4.50
2023-02-02T14:36:15.181Z,6.55
2023-02-02T14:38:59.246Z,4.30
2023-02-02T14:42:12.746Z,9.35
2023-02-02T14:45:17.095Z,10.37
2023-02-02T14:47:51.040Z,4.90
2023-02-02T14:50:24.397Z,10.35
2023-02-02T14:53:03.450Z,5.40
2023-02-02T14:55:33.343Z,5.97
2023-02-02T14:58:03.608Z,3.92
2023-02-02T15:00:33.989Z,8.52
2023-02-02T15:03:48.245Z,6.15
2023-02-02T15:06:32.934Z,3.80
2023-02-02T15:09:36.770Z,6.05
2023-02-02T15:12:43.568Z,6.20
2023-02-02T15:15:18.428Z,4.38
2023-02-02T15:17:55.897Z,3.20
2023-02-02T15:20:30.364Z,5.97
2023-02-02T15:23:01.952Z,3.90
2023-02-02T15:25:35.315Z,7.85
2023-02-02T15:30:41.092Z,4.63
2023-02-02T15:33:21.716Z,10.05
2023-02-02T15:35:50.170Z,5.20
2023-02-02T15:38:20.972Z,5.03
2023-02-02T15:40:49.758Z,3.10
2023-02-02T15:43:19.501Z,2.33
2023-02-02T15:45:50.673Z,4.90
2023-02-02T15:48:22.488Z,6.20
2023-02-02T15:50:54.656Z,2.45
2023-02-02T15:53:25.665Z,8.38
2023-02-02T15:55:54.465Z,4.70
2023-02-02T15:58:32.693Z,3.70
2023-02-02T16:01:04.269Z,3.60
2023-02-02T16:03:39.560Z,6.65
2023-02-02T16:06:08.980Z,5.47
2023-02-02T16:08:39.998Z,6.97
2023-02-02T16:11:11.304Z,8.10
2023-02-02T16:13:42.269Z,3.30
2023-02-02T16:16:23.897Z,5.97
2023-02-02T16:19:03.344Z,3.67
2023-02-02T16:21:32.557Z,4.15
2023-02-02T16:24:01.687Z,5.38
2023-02-02T16:26:32.638Z,2.72
2023-02-02T16:29:02.564Z,2.78
2023-02-02T16:31:31.457Z,4.78
2023-02-02T16:34:02.414Z,1.40
2023-02-02T16:36:31.122Z,4.20
2023-02-02T16:39:01.348Z,4.57
2023-02-02T16:41:34.724Z,3.20
2023-02-02T16:44:38.602Z,2.92
2023-02-02T16:47:08.429Z,2.73
2023-02-02T16:49:37.720Z,4.47
2023-02-02T16:52:15.305Z,2.88
2023-02-02T16:54:51.088Z,5.00
2023-02-02T16:57:22.659Z,5.00
2023-02-02T16:59:54.771Z,6.93
2023-02-02T17:02:29.762Z,4.05
2023-02-02T17:05:01.843Z,4.43
2023-02-02T17:07:31.068Z,5.22
2023-02-02T17:10:21.378Z,6.57
2023-02-02T17:12:49.581Z,4.18
2023-02-02T17:15:34.400Z,4.18
2023-02-02T17:18:03.276Z,5.85
2023-02-02T17:20:32.509Z,4.95
2023-02-02T17:23:03.575Z,6.38
2023-02-02T17:25:37.030Z,8.18
2023-02-02T17:28:08.568Z,6.28
2023-02-02T17:30:40.482Z,6.63
2023-02-02T17:33:14.672Z,6.55
2023-02-02T17:35:53.873Z,7.88
2023-02-02T17:38:23.021Z,5.20
2023-02-02T17:40:51.836Z,5.53
2023-02-02T17:43:19.832Z,9.45
2023-02-02T17:45:49.222Z,4.40
2023-02-02T17:48:17.362Z,10.07
2023-02-02T17:50:47.069Z,8.13
2023-02-02T17:53:16.532Z,5.15
2023-02-02T17:55:45.676Z,4.15
2023-02-02T17:58:17.216Z,10.70
2023-02-02T18:00:46.492Z,6.90
2023-02-02T18:03:21.008Z,5.93
2023-02-02T18:05:49.333Z,3.58
2023-02-02T18:08:17.622Z,5.35
2023-02-02T18:10:45.739Z,6.00
2023-02-02T18:13:15.924Z,6.05
2023-02-02T18:15:44.736Z,4.75
2023-02-02T18:18:12.913Z,7.03
2023-02-02T18:20:43.887Z,6.50
2023-02-02T18:23:11.833Z,4.72
2023-02-02T18:25:40.569Z,10.57
2023-02-02T18:28:09.521Z,5.53
2023-02-02T18:30:39.219Z,4.78
2023-02-02T18:33:08.706Z,6.75
2023-02-02T18:35:36.729Z,3.90
2023-02-02T18:38:05.979Z,5.90
2023-02-02T18:40:33.898Z,3.63
2023-02-02T18:43:01.894Z,7.47
2023-02-02T18:45:29.914Z,6.43
2023-02-02T18:47:58.183Z,4.85
2023-02-02T18:50:26.083Z,8.57
2023-02-02T18:52:54.208Z,12.90
2023-02-02T18:55:23.636Z,5.00
2023-02-02T18:57:51.692Z,3.47
2023-02-02T19:00:22.012Z,4.70
2023-02-02T19:02:49.976Z,11.95
2023-02-02T19:05:35.980Z,3.88
2023-02-02T19:08:05.815Z,13.50
2023-02-02T19:10:35.142Z,5.78
2023-02-02T19:13:13.351Z,6.15
2023-02-02T19:15:42.433Z,14.40
2023-02-02T19:18:15.054Z,13.30
2023-02-02T19:20:43.632Z,5.35
2023-02-02T19:23:13.533Z,6.85
2023-02-02T19:25:46.275Z,10.25
2023-02-02T19:28:22.602Z,7.38
2023-02-02T19:30:51.711Z,7.03
2023-02-02T19:33:20.039Z,7.97
2023-02-02T19:35:51.671Z,6.88
2023-02-02T19:38:30.500Z,8.80
2023-02-02T19:41:02.307Z,8.18
2023-02-02T19:43:33.119Z,8.68
2023-02-02T19:46:01.404Z,7.68
2023-02-02T19:48:35.535Z,7.50
2023-02-02T19:51:38.431Z,10.68
2023-02-02T19:54:18.229Z,7.13
2023-02-02T19:56:47.538Z,9.93
2023-02-02T19:59:19.465Z,11.23
2023-02-02T20:01:50.570Z,7.40
2023-02-02T20:04:20.006Z,10.80
2023-02-02T20:06:58.498Z,9.30
2023-02-02T20:09:34.544Z,11.18
2023-02-02T20:12:18.880Z,9.00
2023-02-02T20:14:48.859Z,9.10
2023-02-02T20:17:23.918Z,7.45
2023-02-02T20:19:51.859Z,8.20
2023-02-02T20:22:25.807Z,6.38
2023-02-02T20:24:54.807Z,10.85
2023-02-02T20:27:26.726Z,7.35
2023-02-02T20:29:56.532Z,11.35
2023-02-02T20:32:30.078Z,6.07
2023-02-02T20:34:59.706Z,6.88
2023-02-02T20:37:30.111Z,6.13
2023-02-02T20:40:01.130Z,9.15
2023-02-02T20:42:31.193Z,6.97
2023-02-02T20:44:59.143Z,7.85
2023-02-02T20:47:27.017Z,4.50
2023-02-02T20:49:57.311Z,7.05
2023-02-02T20:52:26.282Z,11.98
2023-02-02T20:54:54.233Z,6.15
2023-02-02T20:57:22.120Z,6.80
2023-02-02T20:59:57.400Z,16.33
2023-02-02T21:02:26.500Z,9.43
2023-02-02T21:04:54.736Z,9.02
2023-02-02T21:07:22.889Z,5.65
2023-02-02T21:09:52.157Z,7.53
2023-02-02T21:12:22.306Z,12.00
2023-02-02T21:14:51.761Z,8.00
2023-02-02T21:17:19.709Z,8.15
2023-02-02T21:19:48.089Z,11.75
2023-02-02T21:22:16.196Z,7.13
2023-02-02T21:24:44.094Z,13.18
2023-02-02T21:27:12.045Z,10.30
2023-02-02T21:29:40.138Z,13.40
2023-02-02T21:32:09.406Z,15.07
2023-02-02T21:34:38.109Z,16.73
2023-02-02T21:37:14.084Z,14.88
2023-02-02T21:39:48.210Z,12.50
2023-02-02T21:42:17.973Z,10.93
2023-02-02T21:44:49.742Z,17.63
2023-02-02T21:47:36.121Z,12.07
2023-02-02T21:50:15.489Z,12.13
2023-02-02T21:52:43.757Z,12.80
2023-02-02T21:55:33.408Z,14.27
2023-02-02T21:58:12.108Z,13.32
2023-02-02T22:00:40.054Z,15.27
2023-02-02T22:03:25.937Z,16.15
2023-02-02T22:06:00.533Z,13.98
2023-02-02T22:08:28.497Z,17.50
2023-02-02T22:10:56.341Z,17.67
2023-02-02T22:13:26.595Z,13.05
2023-02-02T22:15:54.570Z,15.50
2023-02-02T22:18:26.131Z,11.13
2023-02-02T22:20:56.489Z,23.15
2023-02-02T22:23:26.385Z,13.40
2023-02-02T22:25:57.781Z,22.40
2023-02-02T22:28:28.272Z,14.95
2023-02-02T22:30:58.542Z,9.75
2023-02-02T22:33:28.019Z,14.75
2023-02-02T22:35:55.976Z,15.63
2023-02-02T22:38:25.484Z,17.27
2023-02-02T22:40:54.342Z,10.32
2023-02-02T22:43:22.775Z,12.57
2023-02-02T22:45:50.836Z,9.65
2023-02-02T22:48:18.840Z,16.17
2023-02-02T22:50:48.164Z,14.65
2023-02-02T22:53:16.017Z,9.20
2023-02-02T22:55:44.314Z,11.35
2023-02-02T22:58:12.259Z,18.95
2023-02-02T23:00:40.182Z,19.58
2023-02-02T23:03:08.126Z,11.35
2023-02-02T23:05:35.983Z,8.18
2023-02-02T23:08:05.565Z,12.77
2023-02-02T23:10:35.826Z,20.90
2023-02-02T23:13:05.860Z,11.90
2023-02-02T23:15:33.789Z,16.60
2023-02-02T23:18:02.147Z,9.88
2023-02-02T23:20:30.171Z,15.38
2023-02-02T23:22:57.989Z,16.75
2023-02-02T23:25:27.241Z,10.60
2023-02-02T23:27:55.209Z,18.00
2023-02-02T23:30:24.642Z,13.60
2023-02-02T23:32:53.049Z,12.77
2023-02-02T23:35:20.952Z,15.38
2023-02-02T23:37:48.941Z,13.70
2023-02-02T23:40:17.091Z,11.45
2023-02-02T23:42:46.389Z,17.05
2023-02-02T23:45:16.283Z,8.57
2023-02-02T23:47:44.715Z,16.38
2023-02-02T23:50:13.352Z,13.02
2023-02-02T23:52:41.575Z,12.10
2023-02-02T23:55:11.106Z,8.13
2023-02-02T23:57:39.453Z,10.20
